Time;durP1;ratioP1;P1;durP2;ratioP2;P2;SDS_P1;SDS_P2;PMS_P1;PMS_P2;Temp;Humidity;BMP_temperature;BMP_pressure;BME280_temperature;BME280_humidity;BME280_pressure;Samples;Min_cycle;Max_cycle;Signal;HPM_P1;HPM_P2
2023/01/12 00:02:33;;;;;;;9.70;1.83;;;;;;;-1.50;82.39;102079.38;10454064;28;20124;-72
2023/01/12 00:07:33;;;;;;;8.38;1.70;;;;;;;-1.53;82.10;102058.63;10454058;28;20065;-73
2023/01/12 00:12:34;;;;;;;12.18;2.08;;;;;;;-1.49;82.07;102052.41;10454581;28;20136;-73
2023/01/12 00:17:35;;;;;;;7.72;1.77;;;;;;;-1.16;82.85;102101.78;10454343;28;20049;-73
2023/01/12 00:22:35;;;;;;;13.63;2.38;;;;;;;-1.47;82.30;102048.00;10453409;28;20045;-73
2023/01/12 00:27:36;;;;;;;8.35;2.15;;;;;;;-1.33;82.99;102060.59;10453609;28;20047;-74
2023/01/12 00:32:37;;;;;;;10.20;2.40;;;;;;;-1.26;82.95;102071.66;10460407;28;20060;-73
2023/01/12 00:37:38;;;;;;;10.18;1.88;;;;;;;-1.06;82.72;102095.34;10462213;28;20040;-72
2023/01/12 00:47:58;;;;;;;12.00;2.38;;;;;;;-1.59;83.77;102001.47;10461405;28;20044;-73
2023/01/12 00:52:58;;;;;;;10.05;2.33;;;;;;;-1.06;83.34;102079.69;10461517;28;20040;-73
2023/01/12 00:57:59;;;;;;;15.60;2.88;;;;;;;-1.28;83.78;102037.00;10462218;28;20045;-75
2023/01/12 01:03:00;;;;;;;9.50;2.40;;;;;;;-0.95;83.33;102087.19;10459553;28;20404;-74
2023/01/12 01:08:03;;;;;;;12.32;2.72;;;;;;;-0.93;83.92;102082.75;10460333;28;20060;-73
2023/01/12 01:13:03;;;;;;;13.27;2.20;;;;;;;-1.21;84.41;102025.44;10476286;28;20044;-74
2023/01/12 01:18:04;;;;;;;12.68;3.00;;;;;;;-1.04;83.77;102051.81;10476106;28;20052;-74
2023/01/12 01:23:05;;;;;;;17.83;2.85;;;;;;;-0.89;84.72;102068.72;10460553;28;20369;-73
2023/01/12 01:28:05;;;;;;;10.65;2.28;;;;;;;-0.86;84.12;102062.53;10459583;28;20055;-74
2023/01/12 01:33:06;;;;;;;11.68;2.40;;;;;;;-1.06;84.41;102009.28;10459334;28;20420;-74
2023/01/12 01:38:08;;;;;;;15.05;2.10;;;;;;;-0.92;84.46;102030.53;10460378;28;20045;-74
2023/01/12 01:43:13;;;;;;;14.65;2.28;;;;;;;-1.29;84.76;101960.50;10458055;28;20129;-73
2023/01/12 01:48:16;;;;;;;14.50;2.47;;;;;;;-0.75;84.26;102042.13;10459466;28;20144;-74
2023/01/12 01:53:22;;;;;;;13.25;3.17;;;;;;;-1.32;84.15;101947.56;10458523;28;20040;-74
2023/01/12 01:58:29;;;;;;;13.32;2.88;;;;;;;-0.88;85.08;102007.78;10457717;28;20036;-74
2023/01/12 02:03:31;;;;;;;15.80;2.78;;;;;;;-1.21;84.38;101947.22;10458413;28;20043;-74
2023/01/12 02:08:50;;;;;;;14.07;2.65;;;;;;;-0.75;85.43;102026.47;10458343;28;20088;-75
2023/01/12 02:19:34;;;;;;;9.30;2.15;;;;;;;-1.06;86.12;101936.25;10457652;28;20041;-74
2023/01/12 02:24:50;;;;;;;11.05;1.95;;;;;;;-0.53;85.81;102005.69;10457839;28;20131;-73
2023/01/12 02:30:13;;;;;;;7.57;1.80;;;;;;;-0.36;85.58;101992.88;10457222;28;20543;-73
2023/01/12 02:35:32;;;;;;;7.32;1.85;;;;;;;-0.24;85.25;101997.63;10457210;28;20586;-73
2023/01/12 02:40:46;;;;;;;10.30;2.10;;;;;;;-0.40;85.93;101953.88;10456668;28;20045;-73
2023/01/12 02:45:58;;;;;;;10.43;2.20;;;;;;;-0.29;86.04;101964.75;10456551;28;20037;-74
2023/01/12 02:51:08;;;;;;;9.85;1.65;;;;;;;-0.07;85.82;101988.28;10456817;28;20056;-73
2023/01/12 02:56:12;;;;;;;6.32;2.20;;;;;;;-0.04;85.67;101988.16;10456235;28;20079;-73
2023/01/12 03:01:14;;;;;;;;;;;;;;;0.10;85.59;101990.25;10456884;28;20041;-73
2023/01/12 03:06:16;;;;;;;5.40;1.95;;;;;;;0.04;86.70;101999.19;10457261;28;19917;-73
2023/01/12 03:11:22;;;;;;;8.30;1.73;;;;;;;-0.09;87.20;101949.19;10454674;28;20148;-73
2023/01/12 03:16:27;;;;;;;4.13;1.80;;;;;;;-0.07;86.93;101942.13;10455676;28;20140;-72
2023/01/12 03:21:34;;;;;;;4.15;2.22;;;;;;;0.21;86.83;101977.63;10455823;28;20588;-72
2023/01/12 03:26:38;;;;;;;6.93;2.33;;;;;;;0.19;86.56;101977.66;10453242;28;20044;-75
2023/01/12 03:31:40;;;;;;;8.57;2.70;;;;;;;-0.32;86.87;101890.00;10445528;28;20040;-75
2023/01/12 03:37:04;;;;;;;5.40;2.13;;;;;;;0.21;86.41;101968.00;10446990;28;20051;-74
2023/01/12 03:42:15;;;;;;;7.68;2.35;;;;;;;-0.19;87.11;101889.50;10452405;28;20044;-73
2023/01/12 03:47:30;;;;;;;6.13;2.47;;;;;;;0.25;87.55;101958.28;10452875;28;20071;-74
2023/01/12 03:52:34;;;;;;;3.95;1.95;;;;;;;0.31;86.68;101962.41;10453828;28;20041;-74
2023/01/12 03:57:37;;;;;;;8.45;2.70;;;;;;;-0.13;87.16;101884.03;10454177;28;20072;-74
2023/01/12 04:02:37;;;;;;;10.35;2.03;;;;;;;0.20;86.81;101934.09;10372438;28;20508;-73
2023/01/12 04:07:39;;;;;;;8.73;2.50;;;;;;;0.30;86.71;101951.13;10371755;28;20053;-72
2023/01/12 04:12:39;;;;;;;7.10;2.08;;;;;;;-0.18;86.71;101860.75;10372198;28;20046;-75
2023/01/12 04:17:40;;;;;;;6.55;2.42;;;;;;;0.32;86.43;101930.97;10371762;28;20046;-75
2023/01/12 04:22:44;;;;;;;4.53;2.20;;;;;;;0.40;86.07;101947.19;10371654;28;20120;-73
2023/01/12 04:27:47;;;;;;;6.07;2.67;;;;;;;0.17;85.95;101895.84;10371923;28;20038;-73
2023/01/12 04:32:48;;;;;;;11.73;2.55;;;;;;;0.47;86.28;101939.94;10371445;28;20049;-73
2023/01/12 04:37:50;;;;;;;7.30;2.42;;;;;;;0.49;86.60;101945.13;10372284;28;20044;-73
2023/01/12 04:43:00;;;;;;;8.98;2.67;;;;;;;0.21;86.57;101892.22;10370870;28;20041;-74
2023/01/12 04:48:09;;;;;;;10.65;2.58;;;;;;;0.52;86.16;101940.59;10408445;28;20037;-75
2023/01/12 04:53:11;;;;;;;10.52;2.80;;;;;;;0.56;85.59;101933.47;10412804;28;20038;-74
2023/01/12 04:58:12;;;;;;;7.68;2.40;;;;;;;0.50;85.38;101911.06;10412009;28;20425;-75
2023/01/12 05:03:14;;;;;;;9.75;2.55;;;;;;;0.45;85.47;101895.56;10411895;28;20045;-74
2023/01/12 05:13:34;;;;;;;6.38;2.50;;;;;;;0.28;85.64;101847.53;10412904;28;20045;-74
2023/01/12 05:18:35;;;;;;;7.10;2.63;;;;;;;0.63;85.53;101900.94;10417853;28;20128;-75
2023/01/12 05:23:36;;;;;;;8.48;2.83;;;;;;;0.16;85.43;101817.53;10418850;28;20182;-74
2023/01/12 05:28:36;;;;;;;11.30;2.40;;;;;;;0.68;85.16;101896.34;10418407;28;20152;-74
2023/01/12 05:33:39;;;;;;;6.88;2.75;;;;;;;0.70;85.33;101898.91;10419369;28;20490;-74
2023/01/12 05:38:40;;;;;;;7.30;2.92;;;;;;;0.29;85.21;101823.94;10418797;28;20052;-74
2023/01/12 05:43:51;;;;;;;8.35;2.25;;;;;;;0.46;85.45;101851.97;10417578;28;20490;-75
2023/01/12 05:48:54;;;;;;;9.73;3.10;;;;;;;0.50;85.15;101852.69;10417122;28;20091;-74
2023/01/12 05:53:54;;;;;;;6.05;2.25;;;;;;;0.89;85.12;101907.63;10418185;28;20497;-73
2023/01/12 05:58:58;;;;;;;12.60;2.13;;;;;;;0.82;84.80;101895.75;10417914;28;20038;-72
2023/01/12 06:04:00;;;;;;;7.15;2.30;;;;;;;0.88;84.64;101904.19;10417008;28;20048;-75
2023/01/12 06:09:01;;;;;;;5.75;2.20;;;;;;;0.79;84.44;101885.41;10416611;28;20061;-73
2023/01/12 06:14:03;;;;;;;5.95;2.10;;;;;;;0.76;84.16;101865.47;10417228;28;20041;-74
2023/01/12 06:19:04;;;;;;;9.07;2.40;;;;;;;1.04;84.55;101912.19;10417306;28;20394;-74
2023/01/12 06:24:05;;;;;;;5.97;1.65;;;;;;;1.03;84.17;101888.72;10417081;28;20120;-74
2023/01/12 06:29:05;;;;;;;4.63;2.00;;;;;;;1.06;83.89;101884.19;10416687;28;20055;-74
2023/01/12 06:34:07;;;;;;;9.32;2.05;;;;;;;0.93;83.81;101845.53;10416512;28;20120;-74
2023/01/12 06:39:08;;;;;;;10.63;2.17;;;;;;;1.10;83.69;101853.50;10415516;28;20114;-74
2023/01/12 06:44:09;;;;;;;5.50;2.05;;;;;;;1.31;83.34;101893.53;10416230;28;20095;-74
2023/01/12 06:49:09;;;;;;;7.28;1.95;;;;;;;1.16;83.62;101842.75;10415780;28;20045;-75
2023/01/12 06:54:10;;;;;;;5.35;1.77;;;;;;;0.87;82.69;101782.13;10415864;28;20120;-74
2023/01/12 06:59:11;;;;;;;6.25;2.05;;;;;;;1.49;83.01;101882.22;10414805;28;20393;-74
2023/01/12 07:04:12;;;;;;;4.47;1.92;;;;;;;1.56;82.65;101870.53;10415584;28;20041;-73
2023/01/12 07:09:13;;;;;;;7.05;2.05;;;;;;;1.57;82.17;101855.66;10414638;28;20472;-73
2023/01/12 07:14:14;;;;;;;6.38;1.83;;;;;;;1.61;81.96;101865.06;10414815;28;20049;-73
2023/01/12 07:19:14;;;;;;;10.18;2.08;;;;;;;1.60;81.29;101834.56;10414236;28;20044;-73
2023/01/12 07:24:15;;;;;;;6.57;1.75;;;;;;;1.66;80.94;101826.41;10414213;28;20104;-74
2023/01/12 07:29:16;;;;;;;7.93;1.70;;;;;;;1.85;80.48;101839.47;10414246;28;20083;-72
2023/01/12 07:34:17;;;;;;;5.43;1.80;;;;;;;1.97;80.28;101840.63;10413812;28;20408;-73
2023/01/12 07:39:17;;;;;;;11.07;2.35;;;;;;;1.23;79.82;101691.50;10411291;28;20037;-76
2023/01/12 07:44:18;;;;;;;4.82;1.90;;;;;;;1.73;79.39;101758.84;10412475;28;20046;-76
2023/01/12 07:49:19;;;;;;;7.15;1.77;;;;;;;2.14;78.93;101816.22;10413922;28;20038;-74
2023/01/12 07:54:20;;;;;;;9.13;1.95;;;;;;;1.80;79.00;101741.91;10413803;28;20455;-75
2023/01/12 07:59:21;;;;;;;6.68;1.60;;;;;;;2.06;78.10;101769.41;10413516;28;20489;-75
2023/01/12 08:04:21;;;;;;;6.38;2.10;;;;;;;2.10;78.31;101768.34;10412178;28;20042;-75
2023/01/12 08:09:22;;;;;;;6.53;1.95;;;;;;;2.28;78.11;101775.25;10414045;28;20152;-73
2023/01/12 08:14:36;;;;;;;6.45;1.60;;;;;;;2.42;77.30;101797.28;10412983;28;20072;-74
2023/01/12 08:19:47;;;;;;;13.70;2.07;;;;;;;2.16;76.81;101726.06;10413124;28;20038;-73
2023/01/12 08:24:54;;;;;;;10.13;2.42;;;;;;;2.40;76.89;101758.03;10411200;28;20044;-74
2023/01/12 08:29:57;;;;;;;11.75;2.00;;;;;;;2.45;75.69;101750.78;10412155;28;20049;-74
2023/01/12 08:34:59;;;;;;;3.75;1.33;;;;;;;2.38;74.47;101720.53;10412642;28;20040;-74
2023/01/12 08:40:02;;;;;;;20.20;2.85;;;;;;;2.57;73.60;101736.13;10411895;28;20513;-74
2023/01/12 08:45:06;;;;;;;6.00;1.75;;;;;;;2.69;74.15;101739.88;10412611;28;20052;-74
2023/01/12 08:50:08;;;;;;;6.20;1.87;;;;;;;2.47;75.29;101678.06;10413413;28;20045;-75
2023/01/12 08:55:10;;;;;;;7.82;1.63;;;;;;;2.98;74.89;101731.25;10419768;28;20264;-74
2023/01/12 09:00:11;;;;;;;11.35;2.10;;;;;;;3.10;74.44;101723.63;10418669;28;20436;-75
2023/01/12 09:05:12;;;;;;;7.93;1.60;;;;;;;3.11;73.70;101696.44;10419261;28;20033;-76
2023/01/12 09:10:13;;;;;;;7.30;1.60;;;;;;;2.82;74.28;101638.56;10418563;28;20068;-73
2023/01/12 09:15:13;;;;;;;9.98;1.52;;;;;;;3.01;75.01;101651.50;10419502;28;20052;-73
2023/01/12 09:20:15;;;;;;;18.83;2.38;;;;;;;3.27;75.05;101672.81;10418978;28;20041;-74
2023/01/12 09:25:16;;;;;;;10.68;1.98;;;;;;;3.36;74.71;101657.34;10418821;28;20076;-74
2023/01/12 09:30:17;;;;;;;17.27;2.33;;;;;;;3.34;74.77;101632.09;10417985;28;20059;-73
2023/01/12 09:35:18;;;;;;;26.75;2.75;;;;;;;3.44;74.87;101625.38;10418398;28;20033;-76
2023/01/12 09:40:19;;;;;;;21.08;2.80;;;;;;;3.38;74.60;101587.19;10418779;28;20088;-74
2023/01/12 09:50:50;;;;;;;13.73;2.10;;;;;;;3.73;72.57;101622.78;10417279;28;20042;-74
2023/01/12 09:56:00;;;;;;;32.53;2.83;;;;;;;3.75;71.92;101606.00;10415763;28;20111;-74
2023/01/12 10:01:08;;;;;;;26.55;2.53;;;;;;;3.75;70.59;101586.75;10417466;28;20037;-74
2023/01/12 10:06:17;;;;;;;28.92;3.03;;;;;;;3.87;72.24;101593.88;10418123;28;20049;-73
2023/01/12 10:11:36;;;;;;;23.60;3.15;;;;;;;3.87;71.45;101593.88;10417560;28;20068;-73
2023/01/12 10:16:59;;;;;;;26.95;3.85;;;;;;;3.82;71.11;101573.13;10417262;28;20037;-73
2023/01/12 10:22:35;;;;;;;26.13;4.00;;;;;;;3.94;69.66;101583.84;10416767;28;20045;-74
2023/01/12 10:27:41;;;;;;;25.50;2.30;;;;;;;3.94;70.75;101587.31;10416220;28;20539;-74
2023/01/12 10:32:42;;;;;;;18.92;2.85;;;;;;;3.87;70.96;101567.59;10416822;28;20038;-74
2023/01/12 10:37:45;;;;;;;16.67;2.47;;;;;;;3.00;71.00;101418.81;10416444;28;20041;-74
2023/01/12 10:43:30;;;;;;;24.73;2.00;;;;;;;3.91;70.78;101552.47;10415856;28;20045;-73
2023/01/12 10:48:31;;;;;;;29.85;2.95;;;;;;;3.26;71.02;101461.88;10415814;28;20386;-74
2023/01/12 10:53:42;;;;;;;16.48;2.42;;;;;;;3.90;71.33;101562.16;10416463;28;20044;-73
2023/01/12 10:58:51;;;;;;;43.60;3.92;;;;;;;3.79;70.98;101539.16;10415228;28;20038;-73
2023/01/12 11:04:03;;;;;;;20.58;3.03;;;;;;;3.92;71.50;101567.31;10415341;28;20048;-73
2023/01/12 11:09:22;;;;;;;22.60;2.85;;;;;;;3.85;71.89;101551.91;10414999;28;20087;-73
2023/01/12 11:14:37;;;;;;;27.20;2.88;;;;;;;3.77;72.07;101554.19;10414162;28;20049;-73
2023/01/12 11:19:42;;;;;;;24.45;3.22;;;;;;;3.72;72.32;101532.59;10414851;28;20037;-74
2023/01/12 11:24:56;;;;;;;24.17;3.53;;;;;;;3.75;72.29;101552.59;10412870;28;20411;-73
2023/01/12 11:29:56;;;;;;;16.77;2.47;;;;;;;3.95;72.28;101590.78;10414001;28;20079;-73
2023/01/12 11:35:18;;;;;;;30.38;3.25;;;;;;;3.71;72.97;101551.94;10414408;28;20507;-73
2023/01/12 11:40:28;;;;;;;30.00;3.22;;;;;;;3.89;73.55;101592.88;10413512;28;20041;-73
2023/01/12 11:45:42;;;;;;;30.77;3.45;;;;;;;3.83;73.86;101587.16;10413283;28;20099;-72
2023/01/12 11:50:44;;;;;;;33.10;2.95;;;;;;;3.26;73.95;101495.13;10413635;28;20042;-72
2023/01/12 11:56:05;;;;;;;32.42;3.60;;;;;;;3.73;74.38;101565.81;10413508;28;20041;-72
2023/01/12 12:01:27;;;;;;;21.75;3.58;;;;;;;3.76;74.72;101581.38;10413598;28;20041;-73
2023/01/12 12:06:45;;;;;;;27.67;3.47;;;;;;;3.60;74.91;101555.22;10412763;28;20033;-73
2023/01/12 12:12:08;;;;;;;20.70;3.67;;;;;;;3.81;75.20;101583.75;10411936;28;20461;-75
2023/01/12 12:17:14;;;;;;;8.40;2.05;;;;;;;3.78;75.15;101547.16;10435468;28;20041;-72
2023/01/12 12:22:15;;;;;;;18.02;3.00;;;;;;;3.67;75.82;101590.69;10422068;28;20131;-71
2023/01/12 12:27:37;;;;;;;13.00;2.70;;;;;;;3.63;76.36;101589.19;10460346;28;20458;-71
2023/01/12 12:32:54;;;;;;;23.55;3.22;;;;;;;3.56;77.00;101593.13;10438365;28;20033;-71
2023/01/12 12:38:00;;;;;;;11.38;2.10;;;;;;;3.52;77.32;101586.34;10431160;28;20180;-73
2023/01/12 12:48:57;;;;;;;14.93;2.47;;;;;;;3.19;78.20;101563.78;10418944;28;20045;-70
2023/01/12 12:54:01;;;;;;;30.30;2.40;;;;;;;3.27;79.05;101584.34;10420271;28;20551;-71
2023/01/12 12:59:02;;;;;;;19.35;2.40;;;;;;;2.66;79.03;101478.53;10428419;28;20051;-71
2023/01/12 13:04:06;;;;;;;14.90;2.55;;;;;;;3.23;79.57;101581.97;10443768;28;20037;-72
2023/01/12 13:09:16;;;;;;;14.87;2.10;;;;;;;3.08;79.83;101550.47;10385194;28;20100;-72
2023/01/12 13:14:20;;;;;;;21.20;3.17;;;;;;;3.15;79.97;101567.53;10390912;28;20077;-73
2023/01/12 13:20:01;;;;;;;8.93;2.28;;;;;;;3.10;80.43;101555.59;10412409;28;20467;-72
2023/01/12 13:25:22;;;;;;;11.98;3.10;;;;;;;3.11;80.24;101559.91;10418267;28;20128;-74
2023/01/12 13:30:39;;;;;;;16.33;2.75;;;;;;;2.57;80.51;101484.31;10419080;28;20519;-74
2023/01/12 13:35:39;;;;;;;16.48;2.42;;;;;;;3.00;81.24;101576.31;10416283;28;20041;-73
2023/01/12 13:40:41;;;;;;;19.20;2.83;;;;;;;2.72;80.93;101533.28;10417793;28;20037;-73
2023/01/12 13:45:55;;;;;;;10.93;2.08;;;;;;;2.50;80.90;101501.34;10392067;28;20071;-74
2023/01/12 13:51:22;;;;;;;20.80;2.85;;;;;;;2.98;81.20;101583.41;10442165;28;20111;-75
2023/01/12 13:56:22;;;;;;;18.65;2.58;;;;;;;1.99;80.43;101404.56;10377351;28;20038;-75
2023/01/12 14:01:28;;;;;;;25.38;2.60;;;;;;;2.78;80.77;101549.59;10377112;28;20263;-75
2023/01/12 14:07:03;;;;;;;12.82;1.95;;;;;;;3.02;80.50;101563.06;10412962;28;20045;-74
2023/01/12 14:12:29;;;;;;;9.98;1.83;;;;;;;2.96;80.57;101572.16;10396233;28;20565;-74
2023/01/12 14:17:48;;;;;;;14.07;2.00;;;;;;;2.86;81.08;101558.72;10400629;28;20040;-73
2023/01/12 14:23:04;;;;;;;6.88;1.77;;;;;;;2.99;80.35;101574.59;10426869;28;20045;-73
2023/01/12 14:28:18;;;;;;;8.73;2.10;;;;;;;3.00;80.02;101576.31;10458296;28;20051;-73
2023/01/12 14:33:25;;;;;;;14.57;2.78;;;;;;;2.51;79.49;101493.41;10442148;28;20094;-73
2023/01/12 14:38:27;;;;;;;10.95;2.45;;;;;;;2.93;79.69;101560.06;10452514;28;20491;-75
2023/01/12 14:49:03;;;;;;;12.37;2.00;;;;;;;2.86;80.56;101560.50;10413895;28;20575;-74
2023/01/12 14:54:07;;;;;;;7.85;1.98;;;;;;;2.72;80.88;101530.66;10415638;28;20084;-75
2023/01/12 14:59:12;;;;;;;9.75;1.88;;;;;;;2.97;80.35;101568.59;10414914;28;20072;-74
2023/01/12 15:04:19;;;;;;;9.02;1.92;;;;;;;2.48;80.53;101469.09;10414286;28;20043;-76
2023/01/12 15:09:28;;;;;;;5.22;1.90;;;;;;;2.94;81.12;101558.28;10415458;28;20057;-73
2023/01/12 15:14:28;;;;;;;10.52;2.55;;;;;;;2.76;80.64;101541.81;10414274;28;20033;-74
2023/01/12 15:30:10;;;;;;;10.88;2.08;;;;;;;2.84;80.98;101538.75;10413441;28;20045;-74
2023/01/12 15:35:29;;;;;;;6.28;1.60;;;;;;;2.54;81.54;101470.53;10419196;28;20102;-74
2023/01/12 15:40:33;;;;;;;8.18;2.00;;;;;;;2.65;81.65;101507.47;10454068;28;20051;-73
2023/01/12 15:45:37;;;;;;;;;;;;;;;2.90;81.34;101535.75;10441145;28;20065;-74
2023/01/12 15:50:43;;;;;;;19.20;2.93;;;;;;;2.08;82.34;101418.94;10413122;28;19971;-74
2023/01/12 15:55:44;;;;;;;12.60;2.13;;;;;;;2.48;83.18;101485.69;10412001;28;20041;-73
2023/01/12 16:00:45;;;;;;;13.07;1.95;;;;;;;2.16;83.26;101411.50;10445402;28;20073;-74
2023/01/12 16:05:45;;;;;;;12.25;2.45;;;;;;;2.79;83.09;101522.44;10450678;28;20044;-75
2023/01/12 16:16:13;;;;;;;10.02;2.30;;;;;;;2.76;84.04;101514.75;10453146;28;20053;-74
2023/01/12 16:21:17;;;;;;;17.75;3.10;;;;;;;2.76;83.97;101510.34;10452002;28;20045;-75
2023/01/12 16:26:17;;;;;;;13.07;2.30;;;;;;;2.72;84.37;101498.31;10451198;28;20439;-72
2023/01/12 16:31:18;;;;;;;8.18;2.20;;;;;;;2.78;84.33;101497.13;10451462;28;20041;-75
2023/01/12 16:36:19;;;;;;;8.50;2.58;;;;;;;2.74;84.92;101492.03;10440573;28;20049;-77
2023/01/12 16:41:23;;;;;;;15.05;2.63;;;;;;;2.76;85.09;101499.84;10450303;28;20527;-75
2023/01/12 16:46:24;;;;;;;12.60;2.63;;;;;;;2.77;85.10;101501.53;10433364;28;20566;-74
2023/01/12 16:51:24;;;;;;;8.38;2.53;;;;;;;2.37;85.10;101426.94;10430012;28;20045;-77
2023/01/12 16:56:25;;;;;;;14.88;3.72;;;;;;;2.62;85.13;101450.78;10442757;28;20041;-75
2023/01/12 17:01:26;;;;;;;13.23;2.95;;;;;;;2.62;85.04;101450.78;10423213;28;20052;-75
2023/01/12 17:06:28;;;;;;;10.70;3.15;;;;;;;2.86;85.39;101476.53;10428348;28;20088;-76
2023/01/12 17:11:29;;;;;;;8.68;2.85;;;;;;;2.36;85.47;101394.59;10429246;28;20500;-75
2023/01/12 17:16:30;;;;;;;11.48;2.65;;;;;;;2.68;85.50;101436.47;10436330;28;20072;-74
2023/01/12 17:21:30;;;;;;;22.15;3.30;;;;;;;2.87;86.15;101463.31;10433790;28;20124;-73
2023/01/12 17:26:31;;;;;;;18.33;3.15;;;;;;;2.83;85.84;101463.59;10435074;28;20581;-75
2023/01/12 17:31:32;;;;;;;7.85;2.50;;;;;;;2.68;85.81;101424.19;10435600;28;20048;-75
2023/01/12 17:36:33;;;;;;;15.63;3.40;;;;;;;2.94;85.67;101461.16;10453989;28;20044;-75
2023/01/12 17:46:53;;;;;;;16.08;3.30;;;;;;;2.41;85.57;101341.88;10452762;28;20125;-75
2023/01/12 17:51:54;;;;;;;12.48;3.38;;;;;;;2.87;85.79;101431.81;10452621;28;20389;-75
2023/01/12 17:56:55;;;;;;;13.10;2.75;;;;;;;2.92;86.08;101449.91;10452900;28;20040;-75
2023/01/12 18:01:56;;;;;;;9.63;3.30;;;;;;;2.62;85.57;101381.75;10455715;28;20162;-75
2023/01/12 18:06:57;;;;;;;13.80;3.17;;;;;;;2.98;85.69;101425.91;10453616;28;20036;-76
2023/01/12 18:11:59;;;;;;;14.98;3.60;;;;;;;2.61;86.10;101370.41;10454524;28;20061;-76
2023/01/12 18:16:59;;;;;;;13.70;3.50;;;;;;;2.59;86.09;101366.19;10455463;28;20045;-77
2023/01/12 18:22:05;;;;;;;15.05;3.33;;;;;;;2.58;85.70;101359.25;10455775;28;20063;-75
2023/01/12 18:27:06;;;;;;;13.90;3.13;;;;;;;2.61;85.07;101338.94;10457847;28;20051;-74
2023/01/12 18:32:07;;;;;;;12.93;2.90;;;;;;;2.97;84.53;101398.00;10457467;28;20523;-75
2023/01/12 18:37:08;;;;;;;24.00;3.80;;;;;;;2.79;85.17;101368.47;10456387;28;20040;-75
2023/01/12 18:58:07;;;;;;;17.42;3.80;;;;;;;3.16;83.02;101380.16;10455725;28;20044;-74
2023/01/12 19:03:08;;;;;;;15.07;3.72;;;;;;;2.94;83.23;101332.56;10457002;28;20044;-75
2023/01/12 19:18:47;;;;;;;17.55;3.30;;;;;;;3.17;82.24;101337.22;10455830;28;20083;-76
2023/01/12 19:29:07;;;;;;;15.15;3.42;;;;;;;3.24;81.09;101326.34;10455232;28;20052;-77
2023/01/12 19:34:08;;;;;;;22.83;4.18;;;;;;;2.68;80.97;101243.16;10445545;28;20040;-74
2023/01/12 19:39:10;;;;;;;15.38;3.22;;;;;;;3.37;81.68;101366.63;10455087;28;20056;-76
2023/01/12 19:44:10;;;;;;;13.32;3.28;;;;;;;3.36;81.41;101351.81;10453810;28;20044;-73
2023/01/12 19:49:12;;;;;;;17.20;3.58;;;;;;;2.87;80.71;101265.63;10454984;28;20037;-73
2023/01/12 19:54:12;;;;;;;12.45;3.72;;;;;;;3.39;80.75;101360.34;10455053;28;20032;-77
2023/01/12 19:59:13;;;;;;;18.40;3.17;;;;;;;2.91;80.36;101273.22;10454338;28;20044;-75
2023/01/12 20:04:14;;;;;;;16.75;3.65;;;;;;;3.22;80.90;101334.31;10454590;28;20140;-75
2023/01/12 20:09:15;;;;;;;14.52;4.35;;;;;;;3.18;81.24;101323.16;10454886;28;20067;-73
2023/01/12 20:14:15;;;;;;;19.83;4.05;;;;;;;3.29;81.04;101342.63;10455748;28;20045;-74
2023/01/12 20:19:19;;;;;;;15.68;4.05;;;;;;;3.02;81.32;101296.19;10453563;28;20045;-74
2023/01/12 20:24:20;;;;;;;12.53;3.37;;;;;;;2.92;81.40;101274.91;10454549;28;20044;-74
2023/01/12 20:29:22;;;;;;;12.40;3.85;;;;;;;3.35;81.13;101344.88;10454530;28;20048;-75
2023/01/12 20:34:23;;;;;;;16.80;4.47;;;;;;;2.89;81.49;101261.97;10454084;28;20123;-74
2023/01/12 20:39:25;;;;;;;16.80;3.90;;;;;;;2.82;81.56;101255.44;10454629;28;20041;-74
2023/01/12 20:44:26;;;;;;;15.73;4.20;;;;;;;2.77;81.89;101244.38;10453309;28;20160;-74
2023/01/12 20:49:27;;;;;;;19.95;3.92;;;;;;;3.30;81.89;101311.03;10461471;28;20045;-76
2023/01/12 20:54:27;;;;;;;22.88;4.07;;;;;;;2.86;82.21;101242.97;10461850;28;20048;-75
2023/01/12 20:59:28;;;;;;;17.38;4.03;;;;;;;3.10;82.84;101286.03;10461106;28;20048;-74
2023/01/12 21:04:30;;;;;;;16.05;4.00;;;;;;;2.76;82.59;101250.56;10460932;28;20049;-75
2023/01/12 21:09:30;;;;;;;16.83;4.00;;;;;;;3.12;83.38;101284.16;10460868;28;20424;-74
2023/01/12 21:14:32;;;;;;;26.45;4.88;;;;;;;2.95;83.17;101252.88;10461773;28;20040;-74
2023/01/12 21:19:33;;;;;;;17.48;4.15;;;;;;;3.20;83.02;101305.53;10460880;28;20047;-75
2023/01/12 21:24:34;;;;;;;27.35;4.20;;;;;;;3.01;83.80;101272.66;10461380;28;20045;-75
2023/01/12 21:29:35;;;;;;;19.27;4.53;;;;;;;3.20;83.47;101291.53;10460390;28;20454;-75
2023/01/12 21:34:35;;;;;;;20.80;4.75;;;;;;;2.73;83.83;101214.88;10460130;28;20041;-75
2023/01/12 21:39:36;;;;;;;13.35;3.38;;;;;;;3.26;83.44;101271.94;10460109;28;20485;-74
2023/01/12 21:44:37;;;;;;;23.73;4.68;;;;;;;2.29;82.51;101116.19;10459843;28;20037;-76
2023/01/12 21:49:38;;;;;;;19.45;4.05;;;;;;;2.92;81.81;101195.31;10460048;28;20080;-74
2023/01/12 21:54:38;;;;;;;34.28;5.20;;;;;;;3.29;81.89;101255.97;10459124;28;20040;-75
2023/01/12 21:59:39;;;;;;;15.65;3.55;;;;;;;3.17;81.78;101221.72;10457892;28;20041;-74
2023/01/12 22:04:40;;;;;;;23.80;3.92;;;;;;;3.40;81.15;101250.88;10459179;28;20390;-74
2023/01/12 22:09:41;;;;;;;28.35;5.40;;;;;;;2.92;81.43;101174.34;10458907;28;20056;-74
2023/01/12 22:14:41;;;;;;;11.25;3.75;;;;;;;3.29;80.75;101227.94;10459053;28;20516;-75
2023/01/12 22:19:42;;;;;;;17.05;3.72;;;;;;;3.43;80.96;101251.50;10457737;28;20070;-73
2023/01/12 22:24:43;;;;;;;24.60;3.53;;;;;;;3.42;80.75;101262.13;10458437;28;20511;-74
2023/01/12 22:29:44;;;;;;;19.92;4.20;;;;;;;3.15;81.14;101201.75;10457602;28;20040;-73
2023/01/12 22:34:44;;;;;;;20.95;3.75;;;;;;;3.29;81.24;101235.84;10458251;28;20045;-75
2023/01/12 22:39:45;;;;;;;21.88;4.35;;;;;;;3.18;80.91;101207.63;10458763;28;20496;-74
2023/01/12 22:44:46;;;;;;;23.73;4.20;;;;;;;3.31;80.96;101223.41;10457017;28;20041;-73
2023/01/12 22:49:47;;;;;;;26.63;4.57;;;;;;;3.43;81.04;101241.00;10457297;28;20044;-73
2023/01/12 22:54:47;;;;;;;42.90;5.32;;;;;;;3.31;80.10;101217.34;10457224;28;20442;-74
2023/01/12 22:59:48;;;;;;;20.13;4.78;;;;;;;3.42;80.28;101235.88;10456356;28;20037;-75
2023/01/12 23:04:49;;;;;;;24.75;4.78;;;;;;;3.05;80.77;101172.63;10456292;28;20047;-74
2023/01/12 23:09:49;;;;;;;27.85;4.88;;;;;;;3.39;81.13;101239.53;10455724;28;20061;-73
2023/01/12 23:14:50;;;;;;;32.63;5.10;;;;;;;2.67;81.39;101125.22;10456506;28;20072;-74
2023/01/12 23:19:52;;;;;;;32.42;4.82;;;;;;;3.20;81.26;101228.50;10456684;28;20064;-74
2023/01/12 23:24:53;;;;;;;24.00;4.70;;;;;;;3.39;81.59;101246.56;10456131;28;20120;-74
2023/01/12 23:29:54;;;;;;;32.47;5.95;;;;;;;3.35;82.05;101237.19;10455642;28;20139;-73
2023/01/12 23:34:55;;;;;;;44.85;5.60;;;;;;;3.32;81.90;101224.25;10455816;28;20124;-73
2023/01/12 23:39:55;;;;;;;35.72;5.63;;;;;;;3.27;81.68;101203.56;10455914;28;20500;-74
2023/01/12 23:44:56;;;;;;;27.45;5.22;;;;;;;3.40;81.53;101227.25;10454593;28;20090;-73
2023/01/12 23:49:57;;;;;;;23.88;4.97;;;;;;;3.39;82.16;101230.81;10455760;28;20036;-73
2023/01/12 23:54:58;;;;;;;34.92;5.60;;;;;;;3.32;82.50;101211.13;10454507;28;20037;-74
